Time;durP1;ratioP1;P1;durP2;ratioP2;P2;SDS_P1;SDS_P2;PMS_P1;PMS_P2;Temp;Humidity;BMP_temperature;BMP_pressure;BME280_temperature;BME280_humidity;BME280_pressure;Samples;Min_cycle;Max_cycle;Signal;HPM_P1;HPM_P2
2021/10/17 00:02:03;;;;;;;23.93;17.60;;;7.30;99.90;;;;;;5018954;28;20195;-79
2021/10/17 00:04:28;;;;;;;22.23;16.93;;;7.30;99.90;;;;;;5022531;28;20179;-79
2021/10/17 00:06:54;;;;;;;21.77;16.77;;;7.20;99.90;;;;;;5019433;28;20179;-78
2021/10/17 00:09:20;;;;;;;22.53;17.03;;;7.30;99.90;;;;;;5016529;28;20186;-79
2021/10/17 00:11:45;;;;;;;25.53;16.77;;;7.20;99.90;;;;;;5011229;28;20224;-81
2021/10/17 00:14:11;;;;;;;21.27;16.80;;;7.20;99.90;;;;;;5019831;28;20193;-79
2021/10/17 00:16:37;;;;;;;22.90;17.67;;;7.20;99.90;;;;;;5023765;28;20179;-80
2021/10/17 00:19:02;;;;;;;23.20;16.60;;;7.10;99.90;;;;;;5022083;28;20218;-81
2021/10/17 00:21:28;;;;;;;24.33;17.47;;;7.10;99.90;;;;;;5024513;28;20192;-80
2021/10/17 00:23:54;;;;;;;22.30;17.50;;;7.00;99.90;;;;;;5024883;28;20538;-79
2021/10/17 00:26:19;;;;;;;22.53;17.73;;;7.10;99.90;;;;;;5022459;28;20222;-79
2021/10/17 00:28:45;;;;;;;19.80;16.30;;;7.10;99.90;;;;;;5018213;28;20176;-78
2021/10/17 00:31:11;;;;;;;22.23;17.27;;;7.20;99.90;;;;;;5022561;28;20195;-79
2021/10/17 00:33:36;;;;;;;26.27;17.00;;;7.20;99.90;;;;;;5023585;28;20209;-79
2021/10/17 00:36:02;;;;;;;22.90;17.13;;;7.10;99.90;;;;;;5025199;28;20207;-79
2021/10/17 00:38:27;;;;;;;23.43;17.17;;;7.00;99.90;;;;;;5023223;28;20182;-79
2021/10/17 00:40:53;;;;;;;23.83;16.97;;;7.00;99.90;;;;;;5025113;28;20186;-79
2021/10/17 00:43:20;;;;;;;20.00;15.47;;;7.00;99.90;;;;;;5025044;28;20175;-79
2021/10/17 00:45:45;;;;;;;21.60;16.57;;;7.00;99.90;;;;;;5023603;28;20683;-80
2021/10/17 00:48:11;;;;;;;20.47;16.57;;;7.00;99.90;;;;;;5023362;28;20207;-78
2021/10/17 00:50:37;;;;;;;21.53;14.93;;;6.90;99.90;;;;;;5023621;28;20171;-78
2021/10/17 00:53:03;;;;;;;19.97;15.87;;;6.90;99.90;;;;;;5023088;28;20584;-78
2021/10/17 00:55:31;;;;;;;21.47;16.60;;;6.90;99.90;;;;;;5024257;28;20195;-78
2021/10/17 00:58:00;;;;;;;21.27;16.23;;;6.90;99.90;;;;;;5023412;28;20637;-78
2021/10/17 01:00:26;;;;;;;22.13;15.80;;;6.90;99.90;;;;;;5037362;28;20170;-80
2021/10/17 01:02:52;;;;;;;23.07;16.70;;;6.90;99.90;;;;;;5042694;28;20229;-79
2021/10/17 01:05:18;;;;;;;21.70;16.60;;;6.80;99.90;;;;;;5025865;28;20179;-78
2021/10/17 01:07:45;;;;;;;25.00;16.27;;;6.80;99.90;;;;;;5022890;28;20237;-80
2021/10/17 01:10:12;;;;;;;18.90;15.73;;;6.80;99.90;;;;;;5024305;28;20578;-79
2021/10/17 01:12:38;;;;;;;20.60;16.27;;;6.80;99.90;;;;;;5024728;28;20222;-80
2021/10/17 01:15:04;;;;;;;19.07;14.77;;;6.80;99.90;;;;;;5023232;28;20249;-80
2021/10/17 01:17:30;;;;;;;22.73;15.47;;;6.80;99.90;;;;;;5025630;28;20175;-79
2021/10/17 01:19:56;;;;;;;17.20;15.40;;;6.80;99.90;;;;;;5026685;28;20262;-79
2021/10/17 01:22:24;;;;;;;22.30;15.87;;;6.80;99.90;;;;;;5024348;28;20223;-80
2021/10/17 01:24:51;;;;;;;18.33;14.10;;;6.80;99.90;;;;;;5025373;28;20180;-79
2021/10/17 01:27:17;;;;;;;18.07;14.63;;;6.80;99.90;;;;;;5024595;28;20179;-79
2021/10/17 01:29:43;;;;;;;19.30;14.93;;;6.70;99.90;;;;;;5023255;28;20195;-80
2021/10/17 01:32:09;;;;;;;20.30;15.30;;;6.70;99.90;;;;;;5023614;28;20214;-79
2021/10/17 01:34:34;;;;;;;20.73;15.57;;;6.70;99.90;;;;;;5024013;28;20198;-79
2021/10/17 01:37:00;;;;;;;21.60;16.30;;;6.70;99.90;;;;;;5024877;28;20171;-78
2021/10/17 01:39:26;;;;;;;21.03;15.60;;;6.70;99.90;;;;;;5023059;28;20171;-79
2021/10/17 01:41:51;;;;;;;23.03;15.73;;;6.70;99.90;;;;;;5024132;28;20741;-79
2021/10/17 01:44:25;;;;;;;20.13;16.03;;;6.70;99.90;;;;;;5025290;28;20167;-78
2021/10/17 01:46:52;;;;;;;18.60;14.63;;;6.60;99.90;;;;;;5015400;28;20184;-80
2021/10/17 01:49:18;;;;;;;20.17;15.70;;;6.60;99.90;;;;;;5012628;28;20223;-80
2021/10/17 01:51:43;;;;;;;20.97;15.60;;;6.60;99.90;;;;;;5015348;28;20779;-80
2021/10/17 01:54:09;;;;;;;18.50;15.03;;;6.60;99.90;;;;;;5022302;28;20175;-81
2021/10/17 01:56:36;;;;;;;20.60;16.43;;;6.60;99.90;;;;;;5023359;28;20538;-79
2021/10/17 01:59:02;;;;;;;23.90;15.93;;;6.60;99.90;;;;;;5023567;28;20168;-79
2021/10/17 02:01:28;;;;;;;19.77;15.03;;;6.60;99.90;;;;;;5023907;28;20743;-79
2021/10/17 02:03:55;;;;;;;19.17;15.47;;;6.60;99.90;;;;;;5023793;28;20175;-80
2021/10/17 02:06:21;;;;;;;20.00;15.10;;;6.60;99.90;;;;;;5019116;28;20191;-79
2021/10/17 02:08:46;;;;;;;19.77;14.90;;;6.60;99.90;;;;;;5017356;28;20213;-80
2021/10/17 02:11:13;;;;;;;21.97;15.57;;;6.60;99.90;;;;;;5023759;28;20639;-78
2021/10/17 02:13:39;;;;;;;20.20;16.30;;;6.50;99.90;;;;;;5024373;28;20182;-79
2021/10/17 02:16:05;;;;;;;20.60;15.10;;;6.50;99.90;;;;;;5023263;28;20638;-80
2021/10/17 02:18:31;;;;;;;19.70;14.23;;;6.50;99.90;;;;;;5022013;28;20173;-79
2021/10/17 02:20:57;;;;;;;22.83;15.07;;;6.40;99.90;;;;;;5023306;28;20167;-79
2021/10/17 02:23:22;;;;;;;20.03;15.10;;;6.40;99.90;;;;;;5022937;28;20175;-79
2021/10/17 02:25:48;;;;;;;20.77;14.73;;;6.40;99.90;;;;;;5023879;28;20176;-79
2021/10/17 02:28:14;;;;;;;20.40;14.93;;;6.40;99.90;;;;;;5023491;28;20179;-80
2021/10/17 02:30:39;;;;;;;20.47;15.60;;;6.40;99.90;;;;;;5022759;28;20168;-79
2021/10/17 02:33:05;;;;;;;20.80;14.57;;;6.40;99.90;;;;;;5023213;28;20191;-80
2021/10/17 02:35:31;;;;;;;19.93;15.27;;;6.40;99.90;;;;;;5023569;28;20198;-78
2021/10/17 02:37:56;;;;;;;18.57;14.63;;;6.30;99.90;;;;;;5020844;28;20181;-78
2021/10/17 02:40:22;;;;;;;20.30;15.37;;;6.30;99.90;;;;;;5016447;28;20263;-78
2021/10/17 02:42:47;;;;;;;21.13;15.67;;;6.30;99.90;;;;;;5013844;28;20221;-78
2021/10/17 02:45:13;;;;;;;20.83;15.37;;;6.20;99.90;;;;;;5021062;28;20179;-78
2021/10/17 02:47:39;;;;;;;17.77;14.47;;;6.20;99.90;;;;;;5011187;28;20187;-78
2021/10/17 02:50:06;;;;;;;19.53;14.80;;;6.20;99.90;;;;;;5018871;28;20206;-79
2021/10/17 02:52:31;;;;;;;18.40;14.63;;;6.20;99.90;;;;;;5020429;28;20301;-79
2021/10/17 02:54:57;;;;;;;22.27;15.37;;;6.20;99.90;;;;;;5021416;28;20249;-78
2021/10/17 02:57:23;;;;;;;20.60;15.10;;;6.10;99.90;;;;;;5019957;28;20175;-79
2021/10/17 02:59:49;;;;;;;20.67;15.07;;;6.00;99.90;;;;;;5016983;28;20164;-78
2021/10/17 03:02:14;;;;;;;23.03;14.63;;;6.00;99.90;;;;;;5021042;28;20210;-78
2021/10/17 03:04:40;;;;;;;18.63;14.27;;;5.90;99.90;;;;;;5019098;28;20171;-78
2021/10/17 03:07:06;;;;;;;19.73;15.10;;;5.90;99.90;;;;;;5020465;28;20178;-79
2021/10/17 03:09:31;;;;;;;19.80;14.67;;;5.90;99.90;;;;;;5018982;28;20182;-78
2021/10/17 03:11:57;;;;;;;19.03;13.70;;;5.90;99.90;;;;;;5019383;28;20245;-78
2021/10/17 03:14:22;;;;;;;20.87;14.27;;;5.90;99.90;;;;;;5019820;28;20189;-81
2021/10/17 03:16:48;;;;;;;19.33;15.13;;;5.90;99.90;;;;;;5018596;28;20175;-78
2021/10/17 03:19:14;;;;;;;16.60;14.07;;;5.90;99.90;;;;;;5019993;28;20171;-78
2021/10/17 03:21:40;;;;;;;21.43;15.00;;;5.80;99.90;;;;;;5012978;28;20230;-78
2021/10/17 03:24:06;;;;;;;16.47;13.63;;;5.90;99.90;;;;;;5018275;28;20178;-79
2021/10/17 03:26:31;;;;;;;17.87;14.60;;;5.90;99.90;;;;;;5019713;28;20310;-78
2021/10/17 03:28:57;;;;;;;17.20;14.40;;;5.90;99.90;;;;;;5019298;28;20561;-78
2021/10/17 03:31:23;;;;;;;20.40;13.83;;;5.80;99.90;;;;;;5004977;28;20203;-79
2021/10/17 03:33:48;;;;;;;21.83;15.27;;;5.80;99.90;;;;;;5017162;28;20595;-78
2021/10/17 03:36:14;;;;;;;17.53;13.63;;;5.80;99.90;;;;;;5017535;28;20187;-78
2021/10/17 03:38:40;;;;;;;19.73;14.43;;;5.80;99.90;;;;;;5009892;28;20758;-80
2021/10/17 03:41:06;;;;;;;18.00;13.77;;;5.80;99.90;;;;;;5014413;28;20254;-79
2021/10/17 03:43:31;;;;;;;18.30;13.50;;;5.70;99.90;;;;;;5017560;28;20171;-78
2021/10/17 03:45:57;;;;;;;17.47;13.50;;;5.60;99.90;;;;;;5000683;28;20313;-80
2021/10/17 03:48:23;;;;;;;18.37;13.37;;;5.60;99.90;;;;;;5016298;28;20258;-79
2021/10/17 03:50:48;;;;;;;15.07;12.60;;;5.50;99.90;;;;;;5017058;28;20183;-78
2021/10/17 03:53:14;;;;;;;17.03;13.47;;;5.60;99.90;;;;;;5013820;28;20206;-80
2021/10/17 03:55:41;;;;;;;17.50;14.10;;;5.50;99.90;;;;;;5016850;28;20193;-80
2021/10/17 03:58:07;;;;;;;18.83;13.70;;;5.40;99.90;;;;;;5026524;23;20227;-77
2021/10/17 04:00:33;;;;;;;18.40;14.10;;;5.40;99.90;;;;;;4973955;28;20183;-76
2021/10/17 04:02:58;;;;;;;19.80;15.33;;;5.20;99.90;;;;;;4974896;28;20179;-77
2021/10/17 04:05:24;;;;;;;17.67;13.73;;;5.30;99.90;;;;;;4990565;28;20754;-77
2021/10/17 04:07:50;;;;;;;20.77;14.80;;;5.30;99.90;;;;;;4971828;28;20278;-77
2021/10/17 04:10:16;;;;;;;20.00;14.40;;;5.40;99.90;;;;;;4988554;28;20210;-76
2021/10/17 04:12:42;;;;;;;18.83;14.23;;;5.20;99.90;;;;;;4987462;28;20650;-77
2021/10/17 04:15:08;;;;;;;19.00;14.60;;;5.20;99.90;;;;;;4989282;28;20210;-77
2021/10/17 04:17:34;;;;;;;19.20;12.93;;;5.20;99.90;;;;;;4989196;28;20195;-77
2021/10/17 04:20:00;;;;;;;18.17;13.70;;;5.20;99.90;;;;;;4987091;28;20183;-77
2021/10/17 04:22:25;;;;;;;17.83;13.60;;;5.20;99.90;;;;;;4972161;28;20187;-77
2021/10/17 04:24:51;;;;;;;18.30;14.17;;;5.20;99.90;;;;;;4986300;28;20655;-78
2021/10/17 04:27:17;;;;;;;17.13;13.80;;;5.20;99.90;;;;;;4991439;28;20274;-77
2021/10/17 04:29:43;;;;;;;19.30;13.90;;;5.20;99.90;;;;;;4979868;28;20548;-77
2021/10/17 04:32:09;;;;;;;18.10;13.60;;;5.10;99.90;;;;;;4993019;28;20598;-77
2021/10/17 04:34:35;;;;;;;17.43;13.83;;;5.20;99.90;;;;;;4991911;28;20248;-77
2021/10/17 04:37:02;;;;;;;17.63;13.47;;;5.10;99.90;;;;;;4967612;28;20241;-77
2021/10/17 04:39:28;;;;;;;19.23;13.73;;;5.20;99.90;;;;;;4976170;28;20176;-77
2021/10/17 04:41:54;;;;;;;18.27;13.67;;;5.20;99.90;;;;;;4972307;28;20189;-77
2021/10/17 04:44:20;;;;;;;16.07;13.17;;;5.20;99.90;;;;;;4986547;28;20172;-77
2021/10/17 04:46:46;;;;;;;18.23;13.90;;;5.20;99.90;;;;;;4990552;28;20254;-79
2021/10/17 04:49:12;;;;;;;18.33;14.13;;;5.20;99.90;;;;;;4976313;28;20176;-77
2021/10/17 04:51:38;;;;;;;18.37;13.77;;;5.20;99.90;;;;;;4993174;28;20172;-77
2021/10/17 04:54:03;;;;;;;19.80;13.80;;;5.10;99.90;;;;;;4975679;28;20188;-77
2021/10/17 04:56:29;;;;;;;18.03;13.83;;;5.20;99.90;;;;;;4975995;28;20219;-76
2021/10/17 04:58:56;;;;;;;24.43;14.03;;;5.20;99.90;;;;;;4979802;28;20227;-77
2021/10/17 05:01:21;;;;;;;18.57;14.00;;;5.20;99.90;;;;;;4993299;28;20187;-77
2021/10/17 05:03:47;;;;;;;17.23;13.50;;;5.20;99.90;;;;;;4975631;28;20179;-77
2021/10/17 05:06:13;;;;;;;18.77;14.00;;;5.20;99.90;;;;;;4993226;28;20210;-77
2021/10/17 05:08:39;;;;;;;18.97;13.97;;;5.20;99.90;;;;;;4975782;28;20299;-77
2021/10/17 05:11:05;;;;;;;19.00;13.53;;;5.20;99.90;;;;;;4993212;28;20307;-77
2021/10/17 05:13:30;;;;;;;21.30;14.60;;;5.20;99.90;;;;;;4975765;28;20196;-77
2021/10/17 05:15:56;;;;;;;21.20;14.40;;;5.30;99.90;;;;;;4993284;28;20212;-76
2021/10/17 05:18:22;;;;;;;18.70;14.60;;;5.40;99.90;;;;;;4995910;28;20606;-77
2021/10/17 05:20:47;;;;;;;19.10;13.77;;;5.40;99.90;;;;;;4996770;28;20188;-77
2021/10/17 05:23:14;;;;;;;23.07;15.63;;;5.40;99.90;;;;;;4996859;28;20275;-77
2021/10/17 05:25:40;;;;;;;19.43;13.87;;;5.40;99.90;;;;;;5012584;28;20642;-77
2021/10/17 05:28:06;;;;;;;21.00;15.00;;;5.50;99.90;;;;;;4978895;28;20698;-77
2021/10/17 05:30:33;;;;;;;22.60;15.57;;;5.60;99.90;;;;;;4979163;28;20198;-77
2021/10/17 05:32:59;;;;;;;22.73;15.53;;;5.70;99.90;;;;;;4996759;28;20191;-77
2021/10/17 05:35:26;;;;;;;21.97;16.60;;;5.70;99.90;;;;;;4980296;28;20708;-77
2021/10/17 05:37:52;;;;;;;19.43;15.20;;;5.80;99.90;;;;;;4995335;28;20200;-77
2021/10/17 05:40:17;;;;;;;24.13;17.10;;;5.80;99.90;;;;;;4979188;28;20557;-77
2021/10/17 05:42:43;;;;;;;23.03;16.47;;;5.90;99.90;;;;;;4996499;28;20208;-77
2021/10/17 05:45:09;;;;;;;23.17;15.33;;;5.90;99.90;;;;;;4996375;28;20655;-77
2021/10/17 05:47:35;;;;;;;22.73;15.37;;;5.90;99.90;;;;;;4996456;28;20231;-77
2021/10/17 05:50:01;;;;;;;21.10;15.43;;;6.00;99.90;;;;;;4979536;28;20215;-77
2021/10/17 05:52:27;;;;;;;21.30;15.83;;;6.00;99.90;;;;;;4996402;28;20180;-77
2021/10/17 05:54:53;;;;;;;19.10;14.93;;;6.10;99.90;;;;;;4996240;28;20207;-77
2021/10/17 05:57:18;;;;;;;20.80;15.00;;;6.10;99.90;;;;;;4996345;28;20224;-77
2021/10/17 05:59:44;;;;;;;20.53;15.33;;;6.10;99.90;;;;;;4996243;28;20259;-77
2021/10/17 06:02:10;;;;;;;21.13;14.90;;;6.10;99.90;;;;;;4985662;28;20184;-77
2021/10/17 06:04:35;;;;;;;23.73;16.50;;;6.10;99.90;;;;;;4996156;28;20223;-77
2021/10/17 06:07:01;;;;;;;23.33;16.00;;;6.10;99.90;;;;;;4996624;28;20279;-77
2021/10/17 06:09:27;;;;;;;26.97;16.47;;;6.00;99.90;;;;;;4996191;28;20176;-77
2021/10/17 06:11:54;;;;;;;29.17;16.73;;;6.10;99.90;;;;;;4983665;28;20781;-77
2021/10/17 06:14:19;;;;;;;28.63;17.53;;;6.10;99.90;;;;;;4974205;28;20183;-77
2021/10/17 06:16:45;;;;;;;34.87;17.67;;;6.10;99.90;;;;;;4978287;28;20221;-77
2021/10/17 06:19:11;;;;;;;41.50;20.97;;;6.10;99.90;;;;;;4978819;28;20187;-77
2021/10/17 06:21:36;;;;;;;40.43;21.10;;;6.00;99.90;;;;;;4987139;28;20199;-77
2021/10/17 06:24:02;;;;;;;39.27;20.50;;;6.10;99.90;;;;;;4991035;28;20274;-77
2021/10/17 06:26:28;;;;;;;43.27;21.17;;;6.10;99.90;;;;;;4958474;28;20192;-77
2021/10/17 06:28:53;;;;;;;42.10;20.70;;;6.00;99.90;;;;;;4992688;28;20234;-77
2021/10/17 06:31:19;;;;;;;47.07;21.73;;;6.00;99.90;;;;;;4993614;28;20215;-77
2021/10/17 06:33:45;;;;;;;49.50;21.40;;;6.00;99.90;;;;;;4972956;28;20720;-77
2021/10/17 06:36:10;;;;;;;42.87;20.53;;;6.00;99.90;;;;;;4996086;28;20218;-77
2021/10/17 06:38:36;;;;;;;45.57;20.10;;;6.00;99.90;;;;;;4978363;28;20237;-77
2021/10/17 06:41:02;;;;;;;35.67;18.77;;;6.10;99.90;;;;;;4995843;28;20195;-77
2021/10/17 06:43:28;;;;;;;29.67;18.13;;;6.00;99.90;;;;;;4987092;28;20238;-77
2021/10/17 06:45:54;;;;;;;36.60;19.13;;;5.90;99.90;;;;;;4995662;28;20651;-77
2021/10/17 06:48:19;;;;;;;31.93;17.87;;;6.10;99.90;;;;;;4978330;28;20207;-76
2021/10/17 06:50:45;;;;;;;28.13;17.00;;;6.10;99.90;;;;;;4995445;28;20800;-77
2021/10/17 06:53:11;;;;;;;22.57;15.23;;;6.10;99.90;;;;;;4995317;28;20258;-77
2021/10/17 06:55:36;;;;;;;26.93;15.27;;;6.20;99.90;;;;;;4994759;28;20203;-78
2021/10/17 06:58:02;;;;;;;24.03;16.00;;;6.20;99.90;;;;;;4990151;28;20245;-77
2021/10/17 07:00:28;;;;;;;22.17;15.87;;;6.30;99.90;;;;;;4995669;28;20569;-77
2021/10/17 07:02:53;;;;;;;27.87;17.77;;;6.30;99.90;;;;;;4976637;28;20638;-77
2021/10/17 07:05:19;;;;;;;26.40;17.00;;;6.30;99.90;;;;;;4981003;28;20180;-77
2021/10/17 07:07:45;;;;;;;25.53;17.30;;;6.40;99.90;;;;;;4995489;28;20208;-78
2021/10/17 07:10:10;;;;;;;30.13;17.87;;;6.40;99.90;;;;;;4993006;28;20871;-76
2021/10/17 07:12:36;;;;;;;29.90;18.10;;;6.50;99.90;;;;;;4979433;28;20184;-77
2021/10/17 07:15:02;;;;;;;23.63;17.07;;;6.50;99.90;;;;;;4973799;28;20262;-77
2021/10/17 07:17:28;;;;;;;24.27;17.73;;;6.50;99.90;;;;;;4977630;28;20254;-76
2021/10/17 07:19:53;;;;;;;24.17;16.57;;;6.50;99.90;;;;;;4990260;28;20790;-77
2021/10/17 07:22:19;;;;;;;30.90;18.40;;;6.60;99.90;;;;;;4982869;28;20253;-77
2021/10/17 07:24:45;;;;;;;22.70;16.60;;;6.60;99.90;;;;;;4995272;28;20657;-77
2021/10/17 07:27:10;;;;;;;24.90;17.33;;;6.50;99.90;;;;;;4977506;28;20210;-77
2021/10/17 07:29:36;;;;;;;28.50;17.47;;;6.60;99.90;;;;;;4974628;28;20283;-77
2021/10/17 07:32:01;;;;;;;26.37;17.67;;;6.60;99.90;;;;;;4975775;28;20198;-75
2021/10/17 07:34:27;;;;;;;32.30;18.63;;;6.60;99.90;;;;;;4994987;28;20191;-76
2021/10/17 07:36:53;;;;;;;28.33;18.40;;;6.70;99.90;;;;;;4994817;28;20678;-76
2021/10/17 07:39:18;;;;;;;32.17;18.83;;;6.70;99.90;;;;;;4994417;28;20203;-77
2021/10/17 07:41:50;;;;;;;28.53;18.70;;;6.80;99.90;;;;;;4972480;28;20180;-77
2021/10/17 07:44:16;;;;;;;28.60;18.43;;;6.80;99.90;;;;;;4992465;28;20650;-76
2021/10/17 07:46:42;;;;;;;30.63;20.10;;;6.80;99.90;;;;;;4994648;28;20187;-77
2021/10/17 07:49:08;;;;;;;37.97;21.93;;;6.80;99.90;;;;;;4995145;28;20183;-76
2021/10/17 07:51:34;;;;;;;38.80;20.63;;;6.90;99.90;;;;;;4994617;28;20236;-76
2021/10/17 07:53:59;;;;;;;32.27;20.30;;;6.90;99.90;;;;;;4994942;28;20239;-76
2021/10/17 07:56:25;;;;;;;44.07;22.37;;;7.00;99.90;;;;;;4994474;28;20205;-78
2021/10/17 07:58:52;;;;;;;42.70;22.30;;;7.00;99.90;;;;;;4994625;28;20215;-76
2021/10/17 08:01:18;;;;;;;43.63;21.80;;;7.00;99.90;;;;;;4977466;28;20180;-76
2021/10/17 08:03:43;;;;;;;49.63;23.17;;;7.00;99.90;;;;;;4994770;28;20250;-75
2021/10/17 08:06:09;;;;;;;54.97;25.53;;;7.10;99.90;;;;;;4977110;28;20662;-76
2021/10/17 08:08:35;;;;;;;52.50;24.37;;;7.20;99.90;;;;;;4976792;28;20231;-76
2021/10/17 08:11:01;;;;;;;58.47;25.97;;;7.20;99.90;;;;;;4994376;28;20180;-77
2021/10/17 08:13:28;;;;;;;54.83;25.47;;;7.20;99.90;;;;;;4976796;28;20176;-75
2021/10/17 08:15:54;;;;;;;62.80;26.63;;;7.30;99.90;;;;;;4989945;28;20282;-77
2021/10/17 08:18:21;;;;;;;59.80;25.70;;;7.30;99.90;;;;;;4981708;28;20193;-77
2021/10/17 08:20:47;;;;;;;61.53;27.50;;;7.30;99.90;;;;;;4993665;28;20214;-76
2021/10/17 08:23:13;;;;;;;67.80;26.60;;;7.30;99.90;;;;;;4993900;28;20667;-77
2021/10/17 08:25:39;;;;;;;65.83;27.03;;;7.30;99.90;;;;;;4968897;28;20202;-77
2021/10/17 08:28:04;;;;;;;62.07;27.37;;;7.30;99.90;;;;;;4978892;28;20205;-77
2021/10/17 08:30:30;;;;;;;67.83;27.67;;;7.30;99.90;;;;;;4990317;28;20188;-77
2021/10/17 08:32:56;;;;;;;68.70;28.00;;;7.40;99.90;;;;;;4993626;28;20184;-77
2021/10/17 08:35:21;;;;;;;68.23;27.00;;;7.40;99.90;;;;;;4993673;28;20311;-77
2021/10/17 08:37:47;;;;;;;65.33;27.33;;;7.50;99.90;;;;;;4989855;28;20671;-76
2021/10/17 08:40:13;;;;;;;70.17;27.30;;;7.50;99.90;;;;;;4976937;28;20180;-77
2021/10/17 08:42:38;;;;;;;65.27;26.37;;;7.50;99.90;;;;;;4985612;28;20176;-77
2021/10/17 08:45:06;;;;;;;65.60;27.93;;;7.50;99.90;;;;;;4993914;28;20702;-77
2021/10/17 08:47:34;;;;;;;68.17;28.70;;;7.60;99.90;;;;;;4984922;28;20671;-77
2021/10/17 08:50:00;;;;;;;65.60;27.80;;;7.50;99.90;;;;;;4985220;28;20262;-76
2021/10/17 08:52:26;;;;;;;70.47;29.47;;;7.60;99.90;;;;;;4982941;28;20556;-76
2021/10/17 08:54:51;;;;;;;63.40;26.80;;;7.60;99.90;;;;;;4996540;28;20219;-81
2021/10/17 08:57:18;;;;;;;63.93;28.47;;;7.70;99.90;;;;;;4996556;28;20280;-81
2021/10/17 08:59:50;;;;;;;56.53;25.87;;;7.70;99.90;;;;;;5003155;28;20254;-81
2021/10/17 09:02:18;;;;;;;56.03;27.53;;;7.70;99.90;;;;;;5004328;28;20172;-81
2021/10/17 09:05:05;;;;;;;55.13;26.80;;;7.70;99.90;;;;;;4987354;28;20198;-81
2021/10/17 09:07:31;;;;;;;61.17;27.53;;;7.70;99.90;;;;;;5013493;28;20191;-81
2021/10/17 09:10:23;;;;;;;53.10;25.60;;;7.80;99.90;;;;;;4992025;28;20254;-81
2021/10/17 09:12:48;;;;;;;43.80;22.67;;;7.80;99.90;;;;;;4984816;28;20184;-79
2021/10/17 09:15:24;;;;;;;41.50;23.93;;;8.00;99.90;;;;;;5006268;28;20209;-81
2021/10/17 09:18:09;;;;;;;40.80;23.60;;;8.10;99.90;;;;;;4976830;28;20212;-81
2021/10/17 09:20:49;;;;;;;44.60;24.63;;;8.20;99.90;;;;;;5003923;28;20184;-81
2021/10/17 09:23:29;;;;;;;41.80;24.23;;;8.20;99.90;;;;;;4986492;28;20176;-81
2021/10/17 09:25:57;;;;;;;41.77;24.67;;;8.30;99.90;;;;;;5004320;28;20171;-81
2021/10/17 09:28:29;;;;;;;39.73;24.40;;;8.30;99.90;;;;;;5004922;28;20701;-81
2021/10/17 09:31:03;;;;;;;37.67;23.87;;;8.30;99.90;;;;;;4986995;28;20180;-82
2021/10/17 09:33:29;;;;;;;36.47;23.30;;;8.30;99.90;;;;;;5004101;28;20205;-82
2021/10/17 09:35:55;;;;;;;41.67;24.83;;;8.40;99.90;;;;;;5004244;28;20196;-82
2021/10/17 09:38:33;;;;;;;43.30;24.73;;;8.40;99.90;;;;;;5004916;28;20223;-82
2021/10/17 09:41:23;;;;;;;42.93;25.10;;;8.50;99.90;;;;;;4986062;28;20180;-82
2021/10/17 09:43:53;;;;;;;45.73;25.83;;;8.50;99.90;;;;;;4997778;28;20207;-82
2021/10/17 09:46:18;;;;;;;48.10;26.67;;;8.40;99.90;;;;;;5004939;28;20180;-82
2021/10/17 09:48:45;;;;;;;46.97;27.10;;;8.40;99.90;;;;;;5004666;28;20192;-82
2021/10/17 09:51:13;;;;;;;48.10;26.83;;;8.40;99.90;;;;;;5004317;28;20606;-82
2021/10/17 09:53:43;;;;;;;47.47;26.63;;;8.40;99.90;;;;;;5005850;28;20176;-81
2021/10/17 09:56:09;;;;;;;44.73;25.63;;;8.50;99.90;;;;;;5005825;28;20336;-82
2021/10/17 09:58:35;;;;;;;48.97;27.37;;;8.50;99.90;;;;;;5005279;28;20682;-82
2021/10/17 10:01:01;;;;;;;46.40;26.00;;;8.60;99.90;;;;;;5003578;28;20180;-82
2021/10/17 10:03:28;;;;;;;46.97;26.93;;;8.50;99.90;;;;;;5002986;28;20183;-82
2021/10/17 10:05:56;;;;;;;44.37;27.13;;;8.50;99.90;;;;;;5004341;28;20180;-82
2021/10/17 10:08:23;;;;;;;45.87;26.67;;;8.40;99.90;;;;;;5003358;28;20206;-82
2021/10/17 10:10:50;;;;;;;46.53;26.17;;;8.50;99.90;;;;;;5003740;28;20222;-82
2021/10/17 10:13:18;;;;;;;44.70;26.60;;;8.40;99.90;;;;;;5003805;28;20183;-82
2021/10/17 10:15:45;;;;;;;47.80;26.53;;;8.40;99.90;;;;;;4984847;28;20664;-82
2021/10/17 10:18:12;;;;;;;42.10;25.03;;;8.50;99.90;;;;;;5002868;28;20196;-82
2021/10/17 10:20:40;;;;;;;43.63;26.03;;;8.70;99.90;;;;;;5003329;28;20180;-82
2021/10/17 10:23:11;;;;;;;42.30;25.53;;;8.50;99.90;;;;;;5003776;28;20182;-82
2021/10/17 10:25:38;;;;;;;41.63;26.13;;;8.70;99.90;;;;;;5003804;28;20180;-82
2021/10/17 10:28:09;;;;;;;46.90;28.20;;;8.70;99.90;;;;;;5003099;28;20199;-80
2021/10/17 10:30:38;;;;;;;48.60;27.13;;;8.60;99.90;;;;;;5002921;28;20180;-82
2021/10/17 10:33:06;;;;;;;44.10;25.80;;;8.70;99.90;;;;;;4985108;28;20180;-82
2021/10/17 10:35:33;;;;;;;39.40;25.83;;;8.80;99.90;;;;;;5002649;28;20192;-82
2021/10/17 10:37:59;;;;;;;36.47;23.63;;;8.80;99.90;;;;;;5002101;28;20570;-82
2021/10/17 10:40:25;;;;;;;42.53;26.47;;;7.20;99.90;;;;;;5002066;28;20266;-82
2021/10/17 10:42:53;;;;;;;39.53;25.70;;;8.90;99.90;;;;;;4994286;28;20205;-81
2021/10/17 10:45:35;;;;;;;38.87;24.03;;;8.90;99.90;;;;;;5003572;28;20172;-82
2021/10/17 10:48:14;;;;;;;37.93;23.50;;;9.00;99.90;;;;;;5002309;28;20200;-82
2021/10/17 10:50:41;;;;;;;35.80;23.73;;;9.10;99.90;;;;;;5002333;28;20659;-82
2021/10/17 10:53:09;;;;;;;40.30;24.77;;;9.00;99.90;;;;;;5002172;28;20177;-82
2021/10/17 10:55:43;;;;;;;35.27;23.70;;;9.10;99.90;;;;;;5002610;28;20206;-80
2021/10/17 10:58:26;;;;;;;37.33;23.93;;;9.10;99.90;;;;;;5002124;28;20702;-82
2021/10/17 11:00:55;;;;;;;38.47;24.43;;;9.20;99.90;;;;;;5003150;28;20245;-82
2021/10/17 11:03:21;;;;;;;43.77;24.63;;;9.10;99.90;;;;;;5002527;28;20548;-82
2021/10/17 11:06:14;;;;;;;39.20;24.03;;;9.20;99.90;;;;;;5003085;28;20180;-82
2021/10/17 11:08:42;;;;;;;35.27;23.40;;;9.20;99.90;;;;;;5002665;28;20272;-82
2021/10/17 11:11:08;;;;;;;39.23;24.10;;;9.20;99.90;;;;;;5002358;28;20179;-82
2021/10/17 11:13:46;;;;;;;42.27;23.33;;;9.20;99.90;;;;;;5003457;28;20662;-82
2021/10/17 11:16:20;;;;;;;37.80;24.97;;;9.30;99.90;;;;;;5003914;28;20664;-82
2021/10/17 11:18:46;;;;;;;38.63;23.47;;;9.30;99.90;;;;;;5002691;28;20247;-82
2021/10/17 11:21:12;;;;;;;37.90;24.67;;;9.30;99.90;;;;;;5003067;28;20604;-82
2021/10/17 11:23:40;;;;;;;42.23;24.53;;;9.40;99.90;;;;;;5003906;28;20631;-82
2021/10/17 11:26:10;;;;;;;36.80;24.00;;;9.40;99.90;;;;;;5003635;28;20191;-82
2021/10/17 11:28:38;;;;;;;39.27;24.37;;;9.40;99.90;;;;;;5002746;28;20202;-82
2021/10/17 11:31:08;;;;;;;38.20;24.03;;;9.50;99.90;;;;;;5003108;28;20270;-82
2021/10/17 11:33:36;;;;;;;35.33;22.67;;;9.50;99.90;;;;;;5002048;28;20233;-82
2021/10/17 11:36:03;;;;;;;34.30;23.00;;;9.40;99.90;;;;;;5003366;28;20201;-82
2021/10/17 11:38:29;;;;;;;37.40;25.30;;;9.50;99.90;;;;;;5002879;28;20198;-82
2021/10/17 11:41:04;;;;;;;38.80;23.37;;;9.60;99.90;;;;;;4985564;28;20176;-82
2021/10/17 11:43:35;;;;;;;37.33;23.73;;;9.60;99.90;;;;;;4994829;28;20179;-84
2021/10/17 11:46:06;;;;;;;42.37;23.77;;;9.60;99.90;;;;;;4984792;28;20218;-82
2021/10/17 11:48:33;;;;;;;42.47;23.63;;;9.70;99.90;;;;;;5001989;28;20218;-82
2021/10/17 11:51:06;;;;;;;38.37;23.67;;;9.70;99.90;;;;;;5002371;28;20565;-82
2021/10/17 11:53:32;;;;;;;35.30;22.73;;;9.80;99.90;;;;;;5002958;28;20223;-82
2021/10/17 11:55:57;;;;;;;34.37;22.83;;;9.70;99.90;;;;;;4985196;28;20802;-81
2021/10/17 11:58:28;;;;;;;35.40;21.77;;;9.80;99.90;;;;;;5002646;28;20229;-81
2021/10/17 12:01:08;;;;;;;34.03;21.87;;;9.80;99.90;;;;;;5004079;28;20210;-82
2021/10/17 12:03:34;;;;;;;35.70;22.40;;;9.80;99.90;;;;;;5005403;28;20184;-82
2021/10/17 12:06:02;;;;;;;36.33;22.93;;;9.80;99.90;;;;;;5008642;28;20194;-82
2021/10/17 12:08:30;;;;;;;33.53;21.90;;;9.80;99.90;;;;;;4994113;28;20202;-81
2021/10/17 12:10:57;;;;;;;36.50;21.87;;;9.80;99.90;;;;;;5010075;28;20204;-82
2021/10/17 12:13:22;;;;;;;32.53;22.30;;;9.90;99.90;;;;;;4988033;28;20192;-82
2021/10/17 12:15:48;;;;;;;36.73;21.80;;;9.90;99.90;;;;;;5003771;28;20202;-82
2021/10/17 12:18:14;;;;;;;41.13;25.00;;;9.80;99.90;;;;;;5003725;28;20207;-82
2021/10/17 12:20:40;;;;;;;38.17;22.73;;;9.90;99.90;;;;;;5003285;28;20322;-81
2021/10/17 12:23:05;;;;;;;34.50;22.53;;;9.90;99.90;;;;;;5000567;28;20195;-81
2021/10/17 12:25:31;;;;;;;38.70;21.37;;;10.00;99.90;;;;;;4984485;28;20192;-81
2021/10/17 12:28:00;;;;;;;32.37;21.00;;;10.00;99.90;;;;;;4984771;28;20549;-82
2021/10/17 12:30:35;;;;;;;36.10;22.53;;;10.00;99.90;;;;;;5001589;28;20261;-81
2021/10/17 12:33:03;;;;;;;35.43;21.80;;;9.90;99.90;;;;;;5002863;28;20555;-82
2021/10/17 12:35:32;;;;;;;39.67;22.83;;;10.00;99.90;;;;;;5001891;28;20202;-81